createdAt,value
2024-02-18T00:00:02.614Z,97808.59
2024-02-18T00:02:29.432Z,97808.16
2024-02-18T00:04:56.423Z,97811.84
2024-02-18T00:07:24.016Z,97808.38
2024-02-18T00:09:52.860Z,97810.47
2024-02-18T00:12:19.851Z,97806.50
2024-02-18T00:14:46.549Z,97807.78
2024-02-18T00:17:13.954Z,97802.09
2024-02-18T00:19:40.708Z,97804.91
2024-02-18T00:22:07.495Z,97796.28
2024-02-18T00:24:34.297Z,97794.22
2024-02-18T00:27:01.063Z,97796.28
2024-02-18T00:29:28.099Z,97802.09
2024-02-18T00:31:54.782Z,97800.03
2024-02-18T00:34:23.372Z,97799.78
2024-02-18T00:36:51.437Z,97793.41
2024-02-18T00:39:18.510Z,97791.75
2024-02-18T00:41:45.316Z,97791.06
2024-02-18T00:44:12.030Z,97791.28
2024-02-18T00:46:45.344Z,97789.31
2024-02-18T00:49:19.011Z,97780.84
2024-02-18T00:51:46.576Z,97776.78
2024-02-18T00:54:13.553Z,97770.97
2024-02-18T00:56:40.246Z,97775.50
2024-02-18T00:59:07.111Z,97775.72
2024-02-18T01:01:34.488Z,97771.88
2024-02-18T01:04:01.793Z,97777.13
2024-02-18T01:06:28.568Z,97766.78
2024-02-18T01:08:55.391Z,97776.31
2024-02-18T01:11:22.167Z,97767.84
2024-02-18T01:13:49.025Z,97770.38
2024-02-18T01:16:15.726Z,97772.34
2024-02-18T01:18:44.239Z,97767.63
2024-02-18T01:21:11.955Z,97760.63
2024-02-18T01:23:38.987Z,97763.78
2024-02-18T01:26:06.354Z,97771.22
2024-02-18T01:28:33.083Z,97773.75
2024-02-18T01:30:59.818Z,97766.44
2024-02-18T01:33:26.616Z,97767.56
2024-02-18T01:35:53.607Z,97772.97
2024-02-18T01:38:20.315Z,97775.97
2024-02-18T01:40:47.052Z,97774.25
2024-02-18T01:43:15.915Z,97773.38
2024-02-18T01:45:42.625Z,97778.72
2024-02-18T01:48:09.606Z,97777.81
2024-02-18T01:50:36.766Z,97769.34
2024-02-18T01:53:04.453Z,97765.50
2024-02-18T01:55:33.393Z,97766.56
2024-02-18T01:58:01.575Z,97762.25
2024-02-18T02:00:29.142Z,97762.47
2024-02-18T02:02:56.042Z,97758.25
2024-02-18T02:05:23.119Z,97755.44
2024-02-18T02:07:53.656Z,97747.78
2024-02-18T02:10:20.838Z,97750.16
2024-02-18T02:12:48.517Z,97751.63
2024-02-18T02:15:15.515Z,97748.97
2024-02-18T02:17:42.228Z,97747.50
2024-02-18T02:20:10.749Z,97752.25
2024-02-18T02:22:38.477Z,97744.41
2024-02-18T02:25:06.080Z,97749.66
2024-02-18T02:27:39.117Z,97747.63
2024-02-18T02:30:06.599Z,97755.00
2024-02-18T02:32:33.757Z,97754.19
2024-02-18T02:35:00.550Z,97751.09
2024-02-18T02:37:27.278Z,97760.94
2024-02-18T02:39:53.979Z,97757.97
2024-02-18T02:42:20.963Z,97761.03
2024-02-18T02:44:47.746Z,97755.03
2024-02-18T02:47:14.539Z,97759.44
2024-02-18T02:49:41.468Z,97761.84
2024-02-18T02:52:08.210Z,97756.41
2024-02-18T02:54:35.081Z,97755.16
2024-02-18T02:57:01.894Z,97747.97
2024-02-18T02:59:28.572Z,97753.16
2024-02-18T03:01:55.275Z,97739.84
2024-02-18T03:04:22.121Z,97744.72
2024-02-18T03:06:49.059Z,97745.09
2024-02-18T03:09:15.761Z,97748.56
2024-02-18T03:11:42.441Z,97742.19
2024-02-18T03:14:09.094Z,97731.75
2024-02-18T03:16:35.773Z,97731.41
2024-02-18T03:19:02.512Z,97730.75
2024-02-18T03:21:29.398Z,97730.59
2024-02-18T03:23:56.219Z,97733.50
2024-02-18T03:26:23.062Z,97729.88
2024-02-18T03:28:49.756Z,97724.44
2024-02-18T03:31:20.094Z,97721.19
2024-02-18T03:33:47.431Z,97709.81
2024-02-18T03:36:14.276Z,97720.75
2024-02-18T03:38:41.607Z,97719.66
2024-02-18T03:41:08.796Z,97726.09
2024-02-18T03:43:35.928Z,97724.63
2024-02-18T03:46:03.481Z,97728.00
2024-02-18T03:48:30.887Z,97727.66
2024-02-18T03:50:57.832Z,97729.88
2024-02-18T03:53:24.635Z,97727.09
2024-02-18T03:55:51.602Z,97724.31
2024-02-18T03:58:18.686Z,97726.75
2024-02-18T04:00:48.063Z,97729.63
2024-02-18T04:03:15.599Z,97730.28
2024-02-18T04:05:43.001Z,97741.59
2024-02-18T04:08:10.428Z,97740.03
2024-02-18T04:10:37.448Z,97739.22
2024-02-18T04:13:05.216Z,97730.63
2024-02-18T04:15:32.173Z,97734.34
2024-02-18T04:17:59.083Z,97735.94
2024-02-18T04:20:26.127Z,97736.38
2024-02-18T04:22:53.304Z,97741.34
2024-02-18T04:25:20.009Z,97740.31
2024-02-18T04:27:46.971Z,97741.13
2024-02-18T04:30:14.283Z,97732.69
2024-02-18T04:32:41.318Z,97732.25
2024-02-18T04:35:08.384Z,97737.16
2024-02-18T04:37:35.266Z,97727.31
2024-02-18T04:40:02.153Z,97731.59
2024-02-18T04:42:28.870Z,97722.06
2024-02-18T04:44:55.561Z,97730.50
2024-02-18T04:47:23.950Z,97731.72
2024-02-18T04:49:50.851Z,97735.22
2024-02-18T04:52:17.628Z,97733.09
2024-02-18T04:54:44.395Z,97728.13
2024-02-18T04:57:11.173Z,97728.63
2024-02-18T04:59:37.861Z,97720.13
2024-02-18T05:02:04.803Z,97728.38
2024-02-18T05:04:33.058Z,97721.72
2024-02-18T05:07:01.176Z,97728.63
2024-02-18T05:09:28.249Z,97723.69
2024-02-18T05:11:55.770Z,97725.31
2024-02-18T05:14:22.736Z,97716.66
2024-02-18T05:16:49.699Z,97722.38
2024-02-18T05:19:18.396Z,97719.28
2024-02-18T05:21:45.452Z,97713.56
2024-02-18T05:24:13.107Z,97717.97
2024-02-18T05:26:40.287Z,97721.78
2024-02-18T05:29:07.765Z,97726.16
2024-02-18T05:31:35.883Z,97724.47
2024-02-18T05:34:03.472Z,97719.22
2024-02-18T05:36:31.412Z,97723.81
2024-02-18T05:38:58.112Z,97726.69
2024-02-18T05:41:24.861Z,97729.63
2024-02-18T05:43:51.674Z,97734.09
2024-02-18T05:46:18.442Z,97727.91
2024-02-18T05:48:45.911Z,97739.75
2024-02-18T05:51:12.894Z,97727.72
2024-02-18T05:53:39.595Z,97736.19
2024-02-18T05:56:08.026Z,97734.88
2024-02-18T05:58:34.917Z,97733.56
2024-02-18T06:01:02.044Z,97730.63
2024-02-18T06:03:28.851Z,97737.16
2024-02-18T06:05:55.779Z,97735.94
2024-02-18T06:08:22.683Z,97743.75
2024-02-18T06:10:50.068Z,97741.56
2024-02-18T06:13:16.923Z,97747.66
2024-02-18T06:15:43.645Z,97749.25
2024-02-18T06:18:11.593Z,97738.47
2024-02-18T06:20:38.346Z,97742.31
2024-02-18T06:23:05.791Z,97744.56
2024-02-18T06:25:37.262Z,97744.84
2024-02-18T06:28:10.621Z,97735.31
2024-02-18T06:30:38.248Z,97736.41
2024-02-18T06:33:06.246Z,97745.72
2024-02-18T06:35:33.217Z,97739.66
2024-02-18T06:38:00.197Z,97745.69
2024-02-18T06:40:26.890Z,97731.75
2024-02-18T06:42:53.695Z,97736.16
2024-02-18T06:45:21.012Z,97742.53
2024-02-18T06:47:48.996Z,97736.31
2024-02-18T06:50:17.129Z,97739.41
2024-02-18T06:52:43.877Z,97737.19
2024-02-18T06:55:11.251Z,97733.34
2024-02-18T06:57:38.518Z,97742.13
2024-02-18T07:00:05.663Z,97742.06
2024-02-18T07:02:32.450Z,97741.88
2024-02-18T07:04:59.158Z,97743.81
2024-02-18T07:07:25.946Z,97749.59
2024-02-18T07:09:52.750Z,97742.69
2024-02-18T07:12:19.456Z,97751.00
2024-02-18T07:14:46.112Z,97747.88
2024-02-18T07:17:13.967Z,97737.44
2024-02-18T07:19:40.822Z,97738.88
2024-02-18T07:22:08.046Z,97742.13
2024-02-18T07:24:34.790Z,97742.97
2024-02-18T07:27:01.504Z,97746.94
2024-02-18T07:29:28.240Z,97742.41
2024-02-18T07:31:54.922Z,97731.97
2024-02-18T07:34:21.900Z,97735.88
2024-02-18T07:36:48.755Z,97733.13
2024-02-18T07:39:15.435Z,97725.91
2024-02-18T07:41:42.164Z,97716.81
2024-02-18T07:44:08.829Z,97731.81
2024-02-18T07:46:35.492Z,97728.09
2024-02-18T07:49:02.334Z,97722.06
2024-02-18T07:51:29.807Z,97723.03
2024-02-18T07:53:57.438Z,97714.53
2024-02-18T07:56:24.127Z,97711.78
2024-02-18T07:58:50.887Z,97709.06
2024-02-18T08:01:17.717Z,97706.75
2024-02-18T08:03:44.787Z,97711.28
2024-02-18T08:06:11.628Z,97713.88
2024-02-18T08:08:38.540Z,97710.13
2024-02-18T08:11:05.340Z,97705.22
2024-02-18T08:13:32.056Z,97703.91
2024-02-18T08:15:59.894Z,97694.13
2024-02-18T08:18:26.884Z,97692.78
2024-02-18T08:20:53.751Z,97688.78
2024-02-18T08:23:20.557Z,97681.53
2024-02-18T08:25:47.528Z,97669.31
2024-02-18T08:28:14.116Z,97675.91
2024-02-18T08:30:40.848Z,97665.16
2024-02-18T08:33:07.608Z,97657.66
2024-02-18T08:35:34.319Z,97652.81
2024-02-18T08:38:01.173Z,97650.63
2024-02-18T08:40:27.809Z,97644.94
2024-02-18T08:42:54.680Z,97634.34
2024-02-18T08:45:21.310Z,97633.91
2024-02-18T08:47:49.469Z,97626.25
2024-02-18T08:50:16.596Z,97617.00
2024-02-18T08:52:43.313Z,97622.38
2024-02-18T08:55:10.137Z,97614.13
2024-02-18T08:57:36.944Z,97610.63
2024-02-18T09:00:04.225Z,97608.56
2024-02-18T09:02:30.972Z,97609.81
2024-02-18T09:05:01.009Z,97593.75
2024-02-18T09:07:29.608Z,97585.94
2024-02-18T09:09:56.427Z,97584.84
2024-02-18T09:12:23.250Z,97592.75
2024-02-18T09:14:49.946Z,97596.69
2024-02-18T09:17:20.278Z,97595.69
2024-02-18T09:19:48.273Z,97597.13
2024-02-18T09:22:15.636Z,97597.31
2024-02-18T09:24:45.846Z,97599.50
2024-02-18T09:27:12.623Z,97586.44
2024-02-18T09:29:39.498Z,97581.13
2024-02-18T09:32:06.677Z,97584.69
2024-02-18T09:34:33.640Z,97585.56
2024-02-18T09:37:00.473Z,97585.88
2024-02-18T09:39:27.205Z,97577.13
2024-02-18T09:41:54.474Z,97581.47
2024-02-18T09:44:23.757Z,97578.28
2024-02-18T09:46:52.974Z,97565.34
2024-02-18T09:49:21.586Z,97570.56
2024-02-18T09:51:58.291Z,97562.19
2024-02-18T09:54:26.763Z,97571.16
2024-02-18T09:56:54.105Z,97556.56
2024-02-18T09:59:20.817Z,97555.38
2024-02-18T10:01:53.201Z,97539.53
2024-02-18T10:04:20.083Z,97546.63
2024-02-18T10:06:47.089Z,97535.81
2024-02-18T10:09:14.133Z,97542.00
2024-02-18T10:11:40.998Z,97541.91
2024-02-18T10:14:08.124Z,97541.50
2024-02-18T10:16:37.282Z,97523.88
2024-02-18T10:19:04.261Z,97526.38
2024-02-18T10:21:31.117Z,97530.88
2024-02-18T10:23:58.320Z,97515.22
2024-02-18T10:26:25.376Z,97516.16
2024-02-18T10:28:53.689Z,97511.19
2024-02-18T10:31:20.462Z,97501.28
2024-02-18T10:33:47.254Z,97502.22
2024-02-18T10:36:15.612Z,97496.94
2024-02-18T10:38:46.932Z,97496.47
2024-02-18T10:41:21.082Z,97488.44
2024-02-18T10:43:51.585Z,97482.19
2024-02-18T10:46:22.990Z,97486.47
2024-02-18T10:48:56.576Z,97478.63
2024-02-18T10:51:31.285Z,97475.13
2024-02-18T10:54:13.054Z,97468.28
2024-02-18T10:56:41.891Z,97458.97
2024-02-18T10:59:11.594Z,97458.59
2024-02-18T11:01:44.449Z,97449.00
2024-02-18T11:04:11.919Z,97457.06
2024-02-18T11:06:39.682Z,97446.59
2024-02-18T11:09:09.804Z,97443.56
2024-02-18T11:11:37.750Z,97445.38
2024-02-18T11:14:06.167Z,97442.78
2024-02-18T11:16:36.277Z,97437.19
2024-02-18T11:19:04.517Z,97427.22
2024-02-18T11:21:31.981Z,97417.91
2024-02-18T11:24:00.027Z,97414.28
2024-02-18T11:26:27.048Z,97413.31
2024-02-18T11:28:53.926Z,97396.50
2024-02-18T11:31:31.513Z,97392.84
2024-02-18T11:33:58.583Z,97383.38
2024-02-18T11:36:28.084Z,97382.03
2024-02-18T11:38:57.597Z,97371.69
2024-02-18T11:41:33.242Z,97359.81
2024-02-18T11:44:17.410Z,97352.16
2024-02-18T11:46:46.442Z,97349.19
2024-02-18T11:49:13.425Z,97348.81
2024-02-18T11:51:41.421Z,97347.34
2024-02-18T11:54:08.295Z,97341.56
2024-02-18T11:56:35.473Z,97326.38
2024-02-18T11:59:02.521Z,97320.91
2024-02-18T12:01:31.540Z,97325.53
2024-02-18T12:03:59.992Z,97313.78
2024-02-18T12:06:27.000Z,97309.19
2024-02-18T12:08:53.988Z,97304.31
2024-02-18T12:11:20.760Z,97297.06
2024-02-18T12:13:47.552Z,97302.81
2024-02-18T12:16:14.536Z,97294.28
2024-02-18T12:18:41.447Z,97284.06
2024-02-18T12:21:08.631Z,97285.47
2024-02-18T12:23:44.303Z,97286.59
2024-02-18T12:26:11.817Z,97282.91
2024-02-18T12:28:38.557Z,97273.09
2024-02-18T12:31:05.827Z,97266.19
2024-02-18T12:33:33.798Z,97271.25
2024-02-18T12:36:00.864Z,97273.56
2024-02-18T12:38:27.831Z,97270.97
2024-02-18T12:40:57.208Z,97277.06
2024-02-18T12:43:57.006Z,97276.34
2024-02-18T12:46:13.329Z,97269.94
2024-02-18T12:48:40.627Z,97267.22
2024-02-18T12:51:12.573Z,97264.66
2024-02-18T12:53:41.462Z,97259.97
2024-02-18T12:56:10.844Z,97250.44
2024-02-18T12:58:38.160Z,97257.22
2024-02-18T13:01:05.781Z,97254.91
2024-02-18T13:03:33.993Z,97250.94
2024-02-18T13:06:01.820Z,97247.75
2024-02-18T13:08:28.728Z,97249.88
2024-02-18T13:10:56.997Z,97244.22
2024-02-18T13:13:23.684Z,97243.00
2024-02-18T13:15:53.251Z,97230.88
2024-02-18T13:18:20.256Z,97222.66
2024-02-18T13:20:47.037Z,97219.84
2024-02-18T13:23:13.579Z,97218.38
2024-02-18T13:25:40.263Z,97214.94
2024-02-18T13:28:07.225Z,97208.56
2024-02-18T13:30:34.053Z,97207.25
2024-02-18T13:33:03.726Z,97205.28
2024-02-18T13:35:30.462Z,97206.44
2024-02-18T13:37:57.113Z,97209.88
2024-02-18T13:40:23.937Z,97204.50
2024-02-18T13:42:50.724Z,97207.84
2024-02-18T13:45:17.446Z,97209.69
2024-02-18T13:47:45.205Z,97199.66
2024-02-18T13:50:12.263Z,97194.78
2024-02-18T13:52:39.093Z,97187.81
2024-02-18T13:55:06.348Z,97196.53
2024-02-18T13:57:33.132Z,97194.56
2024-02-18T13:59:59.816Z,97192.91
2024-02-18T14:02:26.470Z,97186.56
2024-02-18T14:04:53.298Z,97179.09
2024-02-18T14:07:24.630Z,97176.59
2024-02-18T14:09:51.508Z,97185.84
2024-02-18T14:12:18.103Z,97161.84
2024-02-18T14:14:50.410Z,97171.75
2024-02-18T14:17:17.225Z,97178.28
2024-02-18T14:19:44.023Z,97183.31
2024-02-18T14:22:10.987Z,97172.19
2024-02-18T14:24:37.795Z,97165.34
2024-02-18T14:27:04.623Z,97160.34
2024-02-18T14:29:31.288Z,97164.59
2024-02-18T14:31:57.926Z,97162.78
2024-02-18T14:34:24.843Z,97152.88
2024-02-18T14:36:51.782Z,97155.81
2024-02-18T14:39:18.494Z,97151.75
2024-02-18T14:41:45.178Z,97151.56
2024-02-18T14:44:11.848Z,97147.56
2024-02-18T14:46:38.519Z,97148.47
2024-02-18T14:49:05.298Z,97139.56
2024-02-18T14:51:32.969Z,97139.94
2024-02-18T14:53:59.786Z,97139.94
2024-02-18T14:56:26.524Z,97127.88
2024-02-18T14:58:53.415Z,97136.53
2024-02-18T15:01:20.617Z,97139.88
2024-02-18T15:03:47.597Z,97138.06
2024-02-18T15:06:14.414Z,97132.06
2024-02-18T15:08:41.869Z,97137.16
2024-02-18T15:11:08.594Z,97132.00
2024-02-18T15:13:35.305Z,97124.06
2024-02-18T15:16:02.183Z,97119.84
2024-02-18T15:18:28.847Z,97120.19
2024-02-18T15:20:56.970Z,97118.31
2024-02-18T15:23:23.781Z,97117.75
2024-02-18T15:25:53.271Z,97110.22
2024-02-18T15:28:20.714Z,97108.53
2024-02-18T15:30:47.519Z,97113.16
2024-02-18T15:33:14.393Z,97100.16
2024-02-18T15:35:41.540Z,97108.94
2024-02-18T15:38:08.501Z,97103.19
2024-02-18T15:40:35.300Z,97108.31
2024-02-18T15:43:02.465Z,97107.03
2024-02-18T15:45:29.318Z,97103.81
2024-02-18T15:47:57.463Z,97095.84
2024-02-18T15:50:24.558Z,97100.34
2024-02-18T15:52:51.437Z,97096.22
2024-02-18T15:55:20.130Z,97098.28
2024-02-18T15:57:47.198Z,97098.34
2024-02-18T16:00:14.128Z,97105.38
2024-02-18T16:02:40.978Z,97088.38
2024-02-18T16:05:08.356Z,97092.78
2024-02-18T16:07:35.185Z,97090.16
2024-02-18T16:10:02.085Z,97086.69
2024-02-18T16:12:28.857Z,97087.63
2024-02-18T16:14:55.533Z,97085.56
2024-02-18T16:17:25.033Z,97077.16
2024-02-18T16:19:53.260Z,97078.28
2024-02-18T16:22:20.005Z,97076.13
2024-02-18T16:24:48.300Z,97070.53
2024-02-18T16:27:15.057Z,97075.75
2024-02-18T16:29:41.830Z,97072.03
2024-02-18T16:32:11.044Z,97072.88
2024-02-18T16:34:37.798Z,97073.16
2024-02-18T16:37:04.883Z,97081.84
2024-02-18T16:39:36.204Z,97071.41
2024-02-18T16:42:04.008Z,97071.72
2024-02-18T16:44:30.929Z,97064.44
2024-02-18T16:47:01.425Z,97070.91
2024-02-18T16:49:28.610Z,97073.09
2024-02-18T16:51:57.411Z,97066.13
2024-02-18T16:54:24.133Z,97071.03
2024-02-18T16:56:51.957Z,97069.19
2024-02-18T16:59:19.175Z,97070.31
2024-02-18T17:01:50.198Z,97063.06
2024-02-18T17:04:17.343Z,97066.56
2024-02-18T17:06:44.219Z,97058.03
2024-02-18T17:09:14.675Z,97057.78
2024-02-18T17:11:41.491Z,97053.00
2024-02-18T17:14:08.213Z,97056.78
2024-02-18T17:16:37.681Z,97054.06
2024-02-18T17:19:08.820Z,97058.94
2024-02-18T17:21:35.749Z,97052.75
2024-02-18T17:24:03.127Z,97049.53
2024-02-18T17:26:31.787Z,97045.78
2024-02-18T17:28:58.705Z,97044.44
2024-02-18T17:31:26.693Z,97041.75
2024-02-18T17:33:56.442Z,97042.81
2024-02-18T17:36:24.651Z,97032.34
2024-02-18T17:38:51.385Z,97028.59
2024-02-18T17:41:18.134Z,97026.72
2024-02-18T17:43:44.816Z,97022.69
2024-02-18T17:46:11.557Z,97017.28
2024-02-18T17:48:39.751Z,97014.88
2024-02-18T17:51:07.665Z,97007.09
2024-02-18T17:53:34.360Z,97006.56
2024-02-18T17:56:01.083Z,97001.44
2024-02-18T17:58:27.900Z,96996.06
2024-02-18T18:00:55.253Z,96998.44
2024-02-18T18:03:21.964Z,96991.97
2024-02-18T18:05:48.629Z,96987.13
2024-02-18T18:08:15.395Z,96979.00
2024-02-18T18:10:42.124Z,96980.03
2024-02-18T18:13:08.812Z,96983.50
2024-02-18T18:15:35.573Z,96977.31
2024-02-18T18:18:02.351Z,96972.47
2024-02-18T18:20:29.074Z,96979.91
2024-02-18T18:22:56.061Z,96971.09
2024-02-18T18:25:22.864Z,96962.22
2024-02-18T18:27:49.614Z,96967.53
2024-02-18T18:30:16.417Z,96963.63
2024-02-18T18:32:46.174Z,96973.19
2024-02-18T18:35:13.183Z,96978.56
2024-02-18T18:37:40.165Z,96966.56
2024-02-18T18:40:09.189Z,96969.78
2024-02-18T18:42:37.815Z,96970.59
2024-02-18T18:45:08.511Z,96962.88
2024-02-18T18:47:36.259Z,96956.72
2024-02-18T18:50:05.846Z,96939.09
2024-02-18T18:52:33.614Z,96946.56
2024-02-18T18:55:00.509Z,96944.91
2024-02-18T18:57:27.486Z,96942.22
2024-02-18T18:59:54.197Z,96931.53
2024-02-18T19:02:20.930Z,96936.31
2024-02-18T19:04:47.813Z,96936.19
2024-02-18T19:07:14.877Z,96937.00
2024-02-18T19:09:41.700Z,96934.84
2024-02-18T19:12:08.607Z,96941.25
2024-02-18T19:14:35.264Z,96933.56
2024-02-18T19:17:02.148Z,96930.69
2024-02-18T19:19:28.953Z,96932.56
2024-02-18T19:21:59.153Z,96934.47
2024-02-18T19:24:27.036Z,96928.88
2024-02-18T19:26:53.873Z,96928.03
2024-02-18T19:29:21.241Z,96928.53
2024-02-18T19:31:47.813Z,96931.72
2024-02-18T19:34:14.589Z,96921.00
2024-02-18T19:36:42.746Z,96923.28
2024-02-18T19:39:11.501Z,96920.75
2024-02-18T19:41:42.268Z,96918.13
2024-02-18T19:44:09.581Z,96924.38
2024-02-18T19:46:43.762Z,96922.03
2024-02-18T19:49:11.834Z,96925.78
2024-02-18T19:51:42.894Z,96926.78
2024-02-18T19:54:09.850Z,96935.06
2024-02-18T19:56:36.615Z,96931.22
2024-02-18T19:59:04.156Z,96939.97
2024-02-18T20:01:31.016Z,96941.59
2024-02-18T20:03:57.867Z,96944.28
2024-02-18T20:06:24.643Z,96940.94
2024-02-18T20:08:51.372Z,96946.25
2024-02-18T20:11:18.101Z,96948.69
2024-02-18T20:13:44.804Z,96948.19
2024-02-18T20:16:11.674Z,96958.25
2024-02-18T20:18:38.600Z,96953.59
2024-02-18T20:21:05.852Z,96953.91
2024-02-18T20:23:32.674Z,96964.81
2024-02-18T20:25:59.849Z,96964.03
2024-02-18T20:28:26.794Z,96964.63
2024-02-18T20:30:53.637Z,96963.75
2024-02-18T20:33:20.603Z,96964.97
2024-02-18T20:35:47.368Z,96960.78
2024-02-18T20:38:14.065Z,96969.59
2024-02-18T20:40:42.464Z,96949.16
2024-02-18T20:43:09.346Z,96943.16
2024-02-18T20:45:36.176Z,96931.69
2024-02-18T20:48:04.344Z,96947.13
2024-02-18T20:50:31.100Z,96947.56
2024-02-18T20:52:59.050Z,96968.19
2024-02-18T20:55:25.772Z,96974.00
2024-02-18T20:57:52.841Z,96983.50
2024-02-18T21:00:20.910Z,96990.16
2024-02-18T21:02:47.615Z,96992.16
2024-02-18T21:05:14.453Z,97008.25
2024-02-18T21:07:41.216Z,97003.06
2024-02-18T21:10:08.549Z,97008.41
2024-02-18T21:12:35.355Z,97019.63
2024-02-18T21:15:02.161Z,97001.31
2024-02-18T21:17:29.424Z,97003.97
2024-02-18T21:19:56.174Z,96996.09
2024-02-18T21:22:23.059Z,96987.31
2024-02-18T21:24:50.172Z,96999.72
2024-02-18T21:27:16.913Z,97013.59
2024-02-18T21:29:43.681Z,97019.97
2024-02-18T21:32:10.425Z,97019.44
2024-02-18T21:34:37.182Z,97017.31
2024-02-18T21:37:04.124Z,97029.56
2024-02-18T21:39:40.608Z,97027.44
2024-02-18T21:42:14.623Z,97025.41
2024-02-18T21:44:41.325Z,97020.81
2024-02-18T21:47:08.063Z,97015.28
2024-02-18T21:49:36.089Z,97012.75
2024-02-18T21:52:04.105Z,97015.72
2024-02-18T21:54:31.235Z,97019.78
2024-02-18T21:56:58.148Z,97022.50
2024-02-18T21:59:25.098Z,97021.84
2024-02-18T22:01:53.443Z,97030.44
2024-02-18T22:04:20.696Z,97027.53
2024-02-18T22:07:00.561Z,97026.19
2024-02-18T22:09:34.325Z,97021.19
2024-02-18T22:12:01.029Z,97023.13
2024-02-18T22:14:27.790Z,97020.50
2024-02-18T22:16:54.464Z,97024.00
2024-02-18T22:19:21.409Z,97026.97
2024-02-18T22:21:48.546Z,97024.38
2024-02-18T22:24:15.341Z,97026.56
2024-02-18T22:26:43.455Z,97021.22
2024-02-18T22:29:10.128Z,97028.34
2024-02-18T22:31:36.806Z,97036.72
2024-02-18T22:34:03.594Z,97030.44
2024-02-18T22:36:30.307Z,97024.97
2024-02-18T22:38:57.359Z,97031.78
2024-02-18T22:41:24.034Z,97015.84
2024-02-18T22:43:50.709Z,97030.16
2024-02-18T22:46:17.561Z,97024.34
2024-02-18T22:48:44.474Z,97025.16
2024-02-18T22:51:11.270Z,97018.63
2024-02-18T22:53:42.181Z,97021.34
2024-02-18T22:56:09.672Z,97014.13
2024-02-18T22:58:37.190Z,97013.56
2024-02-18T23:01:04.824Z,97000.81
2024-02-18T23:03:31.675Z,96995.38
2024-02-18T23:05:58.395Z,96998.63
2024-02-18T23:08:25.564Z,97004.41
2024-02-18T23:10:52.360Z,96997.22
2024-02-18T23:13:19.446Z,96993.28
2024-02-18T23:15:46.159Z,96985.81
2024-02-18T23:18:12.989Z,96981.31
2024-02-18T23:20:40.436Z,96988.78
2024-02-18T23:23:07.948Z,96982.03
2024-02-18T23:25:34.823Z,96979.91
2024-02-18T23:28:01.590Z,96977.25
2024-02-18T23:30:28.346Z,96973.75
2024-02-18T23:32:55.725Z,96985.81
2024-02-18T23:35:23.098Z,96986.09
2024-02-18T23:37:49.979Z,96980.31
2024-02-18T23:40:16.823Z,96980.81
2024-02-18T23:42:43.667Z,96980.88
2024-02-18T23:45:10.591Z,96978.97
2024-02-18T23:47:37.324Z,96983.28
2024-02-18T23:50:04.432Z,96995.06
2024-02-18T23:52:31.099Z,96990.50
2024-02-18T23:55:00.114Z,96990.53
2024-02-18T23:57:27.837Z,97000.72
2024-02-18T23:59:54.722Z,96996.94
